Time;durP1;ratioP1;P1;durP2;ratioP2;P2;SDS_P1;SDS_P2;PMS_P1;PMS_P2;Temp;Humidity;BMP_temperature;BMP_pressure;BME280_temperature;BME280_humidity;BME280_pressure;Samples;Min_cycle;Max_cycle;Signal;HPM_P1;HPM_P2
2024/01/30 00:00:56;;;;;;;6.75;4.28;;;10.70;99.90;;;;;;5015036;28;20170;-67
2024/01/30 00:03:24;;;;;;;6.60;4.78;;;10.50;99.90;;;;;;5014562;28;20229;-67
2024/01/30 00:05:50;;;;;;;7.65;4.75;;;10.60;99.90;;;;;;5032245;28;20177;-67
2024/01/30 00:08:16;;;;;;;7.65;4.88;;;10.50;99.90;;;;;;5046958;28;20178;-68
2024/01/30 00:10:44;;;;;;;8.63;4.97;;;10.50;99.90;;;;;;5017658;28;20239;-66
2024/01/30 00:13:13;;;;;;;5.93;4.78;;;10.50;99.90;;;;;;5025330;28;20221;-67
2024/01/30 00:15:39;;;;;;;6.93;4.35;;;10.50;99.90;;;;;;5014514;28;20203;-68
2024/01/30 00:18:05;;;;;;;6.15;4.40;;;10.50;99.90;;;;;;5025457;28;20373;-68
2024/01/30 00:20:30;;;;;;;6.25;4.45;;;10.50;99.90;;;;;;5031472;28;20194;-67
2024/01/30 00:22:58;;;;;;;5.25;4.28;;;10.50;99.90;;;;;;5022014;28;20483;-67
2024/01/30 00:25:26;;;;;;;6.85;4.15;;;10.40;99.90;;;;;;5034361;28;20246;-68
2024/01/30 00:27:52;;;;;;;6.32;4.63;;;10.40;99.90;;;;;;5030772;28;20211;-66
2024/01/30 00:30:20;;;;;;;5.55;4.38;;;10.50;99.90;;;;;;5030719;28;20183;-66
2024/01/30 00:32:46;;;;;;;5.38;4.53;;;10.40;99.90;;;;;;5031117;28;20265;-68
2024/01/30 00:35:11;;;;;;;6.28;4.60;;;10.40;99.90;;;;;;5015577;28;20274;-67
2024/01/30 00:37:41;;;;;;;6.45;4.10;;;10.40;99.90;;;;;;5017222;28;20170;-68
2024/01/30 00:40:10;;;;;;;5.10;3.88;;;10.40;99.90;;;;;;5045391;28;20177;-68
2024/01/30 00:42:38;;;;;;;5.47;4.28;;;10.40;99.90;;;;;;5044806;28;20213;-68
2024/01/30 00:45:06;;;;;;;7.55;4.38;;;10.40;99.90;;;;;;5017424;28;20190;-67
2024/01/30 00:47:34;;;;;;;5.75;4.00;;;10.40;99.90;;;;;;5025498;28;20221;-68
2024/01/30 00:49:59;;;;;;;6.75;4.20;;;10.40;99.90;;;;;;5034016;28;20224;-67
2024/01/30 00:52:25;;;;;;;5.50;4.15;;;10.40;99.90;;;;;;5034107;28;20197;-68
2024/01/30 00:54:53;;;;;;;4.72;4.10;;;10.30;99.90;;;;;;5031517;28;20206;-67
2024/01/30 00:57:18;;;;;;;7.13;4.50;;;10.30;99.90;;;;;;5034556;28;20170;-67
2024/01/30 00:59:44;;;;;;;5.82;4.35;;;10.30;99.90;;;;;;5017859;28;20174;-67
2024/01/30 01:02:10;;;;;;;6.13;4.32;;;10.40;99.90;;;;;;5033314;28;20192;-68
2024/01/30 01:04:35;;;;;;;6.35;4.95;;;10.30;99.90;;;;;;5033680;28;20186;-67
2024/01/30 01:07:01;;;;;;;5.85;4.40;;;10.30;99.90;;;;;;5029808;28;20202;-68
2024/01/30 01:09:31;;;;;;;6.55;4.88;;;10.30;99.90;;;;;;5037768;28;20162;-67
2024/01/30 01:11:57;;;;;;;5.95;4.38;;;10.20;99.90;;;;;;5029977;28;20234;-67
2024/01/30 01:14:22;;;;;;;6.65;4.68;;;10.30;99.90;;;;;;5028745;28;20328;-68
2024/01/30 01:16:48;;;;;;;6.22;4.20;;;10.30;99.90;;;;;;5017955;28;20199;-67
2024/01/30 01:19:14;;;;;;;7.10;4.35;;;10.20;99.90;;;;;;5056150;28;20176;-67
2024/01/30 01:21:42;;;;;;;4.38;3.85;;;10.20;99.90;;;;;;5052370;28;20188;-66
2024/01/30 01:24:07;;;;;;;6.03;4.35;;;10.20;99.90;;;;;;5025552;28;20170;-67
2024/01/30 01:26:33;;;;;;;6.38;4.38;;;10.20;99.90;;;;;;5027739;28;20252;-68
2024/01/30 01:29:01;;;;;;;6.72;4.55;;;10.30;99.90;;;;;;5023705;28;20191;-68
2024/01/30 01:31:31;;;;;;;5.55;4.28;;;10.20;99.90;;;;;;5037603;28;20321;-67
2024/01/30 01:34:02;;;;;;;6.65;4.50;;;10.20;99.90;;;;;;5037077;28;20288;-67
2024/01/30 01:36:32;;;;;;;5.30;3.83;;;10.30;99.90;;;;;;5037235;28;20194;-67
2024/01/30 01:38:58;;;;;;;6.85;4.57;;;10.20;99.90;;;;;;5029848;28;20198;-67
2024/01/30 01:41:24;;;;;;;7.82;4.15;;;10.30;99.90;;;;;;5017290;28;20202;-68
2024/01/30 01:43:49;;;;;;;5.85;4.18;;;10.30;99.90;;;;;;5017801;28;20174;-65
2024/01/30 01:46:15;;;;;;;6.32;4.57;;;10.30;99.90;;;;;;5035714;28;20198;-67
2024/01/30 01:48:43;;;;;;;5.13;3.90;;;10.30;99.90;;;;;;5022240;28;20270;-67
2024/01/30 01:51:09;;;;;;;5.25;3.92;;;10.30;99.90;;;;;;5021333;28;20178;-67
2024/01/30 01:53:37;;;;;;;5.90;4.15;;;10.30;99.90;;;;;;5033167;28;20201;-67
2024/01/30 01:56:03;;;;;;;7.10;4.32;;;10.30;99.90;;;;;;5025867;28;20193;-67
2024/01/30 01:58:29;;;;;;;6.82;4.78;;;10.30;99.90;;;;;;5022162;28;20190;-65
2024/01/30 02:00:57;;;;;;;7.43;4.25;;;10.20;99.90;;;;;;5023747;28;20167;-67
2024/01/30 02:03:22;;;;;;;5.47;3.95;;;10.30;99.90;;;;;;5033626;28;20224;-67
2024/01/30 02:05:49;;;;;;;6.13;4.70;;;10.30;99.90;;;;;;5053456;28;20282;-67
2024/01/30 02:08:17;;;;;;;5.03;4.32;;;10.40;99.90;;;;;;5056622;28;20189;-67
2024/01/30 02:10:43;;;;;;;5.38;4.32;;;10.30;99.90;;;;;;5056641;28;20170;-67
2024/01/30 02:13:10;;;;;;;5.28;4.45;;;10.30;99.90;;;;;;5056683;28;20201;-66
2024/01/30 02:15:38;;;;;;;5.65;4.32;;;10.30;99.90;;;;;;5038882;28;20206;-67
2024/01/30 02:18:04;;;;;;;5.07;3.92;;;10.30;99.90;;;;;;5035575;28;20284;-67
2024/01/30 02:20:34;;;;;;;6.90;4.20;;;10.30;99.90;;;;;;5036801;28;20252;-65
2024/01/30 02:23:04;;;;;;;9.40;4.45;;;10.30;99.90;;;;;;5036661;28;20210;-67
2024/01/30 02:25:47;;;;;;;6.60;4.80;;;10.30;99.90;;;;;;5026215;28;20198;-68
2024/01/30 02:28:17;;;;;;;7.90;4.85;;;10.30;99.90;;;;;;5016499;28;20185;-66
2024/01/30 02:30:45;;;;;;;5.50;4.60;;;10.30;99.90;;;;;;5019151;28;20182;-68
2024/01/30 02:33:11;;;;;;;6.47;4.80;;;10.40;99.90;;;;;;5036292;28;20170;-68
2024/01/30 02:35:36;;;;;;;6.65;4.63;;;10.30;99.90;;;;;;5030781;28;20194;-68
2024/01/30 02:38:02;;;;;;;7.20;4.63;;;10.30;99.90;;;;;;5052016;28;20276;-68
2024/01/30 02:40:30;;;;;;;6.28;4.28;;;10.30;99.90;;;;;;5049954;28;20179;-68
2024/01/30 02:42:56;;;;;;;6.43;4.38;;;10.30;99.90;;;;;;5022192;28;20171;-67
2024/01/30 02:45:24;;;;;;;6.53;4.45;;;10.30;99.90;;;;;;5016282;28;20179;-67
2024/01/30 02:47:50;;;;;;;5.78;4.55;;;10.20;99.90;;;;;;5016336;28;20198;-66
2024/01/30 02:50:16;;;;;;;4.95;3.70;;;10.20;99.90;;;;;;5016217;28;20213;-66
2024/01/30 02:52:43;;;;;;;5.50;4.00;;;10.20;99.90;;;;;;5026908;28;20243;-67
2024/01/30 02:55:09;;;;;;;6.53;4.22;;;10.20;99.90;;;;;;5035572;28;20225;-68
2024/01/30 02:57:35;;;;;;;7.13;4.80;;;10.20;99.90;;;;;;5035907;28;20207;-68
2024/01/30 03:00:03;;;;;;;6.82;4.30;;;10.20;99.90;;;;;;5034912;28;20185;-67
2024/01/30 03:02:34;;;;;;;4.72;4.07;;;10.20;99.90;;;;;;5016120;28;20179;-68
2024/01/30 03:05:00;;;;;;;6.78;5.03;;;10.20;99.90;;;;;;5020773;28;20225;-68
2024/01/30 03:07:26;;;;;;;5.60;4.32;;;10.20;99.90;;;;;;5030383;28;20217;-68
2024/01/30 03:09:52;;;;;;;4.72;4.07;;;10.20;99.90;;;;;;5043864;28;20217;-71
2024/01/30 03:12:18;;;;;;;6.82;4.18;;;10.30;99.90;;;;;;5050845;28;20201;-69
2024/01/30 03:14:43;;;;;;;6.57;4.85;;;10.20;99.90;;;;;;5030416;28;20170;-69
2024/01/30 03:17:11;;;;;;;5.55;4.40;;;10.20;99.90;;;;;;5035327;28;20220;-68
2024/01/30 03:19:39;;;;;;;6.65;4.18;;;10.20;99.90;;;;;;5035437;28;20265;-69
2024/01/30 03:22:05;;;;;;;6.72;4.20;;;10.20;99.90;;;;;;5036169;28;20166;-69
2024/01/30 03:24:30;;;;;;;6.13;4.30;;;10.20;99.90;;;;;;5034287;28;20178;-67
2024/01/30 03:26:58;;;;;;;5.70;3.97;;;10.20;99.90;;;;;;5030148;28;20194;-67
2024/01/30 03:29:26;;;;;;;5.47;4.65;;;10.20;99.90;;;;;;5018966;28;20201;-69
2024/01/30 03:31:54;;;;;;;6.43;4.57;;;10.10;99.90;;;;;;5031589;28;20192;-68
2024/01/30 03:34:22;;;;;;;5.78;4.18;;;10.10;99.90;;;;;;5039356;28;20189;-69
2024/01/30 03:36:47;;;;;;;5.47;4.10;;;10.10;99.90;;;;;;5047492;28;20210;-68
2024/01/30 03:39:16;;;;;;;6.70;4.68;;;10.10;99.90;;;;;;5026348;28;20202;-69
2024/01/30 03:41:46;;;;;;;6.00;4.30;;;10.10;99.90;;;;;;5031774;28;20181;-68
2024/01/30 03:44:12;;;;;;;6.78;3.97;;;10.10;99.90;;;;;;5034256;28;20182;-68
2024/01/30 03:46:38;;;;;;;4.60;4.05;;;10.00;99.90;;;;;;5027708;28;20213;-69
2024/01/30 03:49:03;;;;;;;5.68;4.50;;;10.00;99.90;;;;;;5015091;28;20198;-68
2024/01/30 03:51:29;;;;;;;7.57;4.45;;;10.00;99.90;;;;;;5019582;28;20245;-69
2024/01/30 03:53:57;;;;;;;7.03;4.32;;;10.00;99.90;;;;;;5033801;28;20189;-69
2024/01/30 03:56:25;;;;;;;9.85;4.93;;;10.10;99.90;;;;;;5043275;28;20221;-68
2024/01/30 03:58:53;;;;;;;6.10;4.55;;;10.00;99.90;;;;;;5034753;28;20198;-69
2024/01/30 04:01:19;;;;;;;5.18;4.28;;;10.00;99.90;;;;;;5017767;28;20341;-68
2024/01/30 04:03:44;;;;;;;4.90;4.07;;;10.00;99.90;;;;;;5030672;28;20459;-69
2024/01/30 04:06:10;;;;;;;4.43;3.67;;;10.00;99.90;;;;;;5054751;28;20184;-68
2024/01/30 04:08:39;;;;;;;4.95;4.07;;;9.90;99.90;;;;;;5036764;28;20224;-68
2024/01/30 04:11:05;;;;;;;5.82;4.05;;;10.00;99.90;;;;;;5026252;28;20186;-69
2024/01/30 04:13:33;;;;;;;6.18;3.90;;;10.00;99.90;;;;;;5014754;28;20202;-69
2024/01/30 04:16:03;;;;;;;6.38;3.90;;;10.00;99.90;;;;;;5014690;28;20288;-68
2024/01/30 04:18:29;;;;;;;5.53;3.90;;;9.90;99.90;;;;;;5029860;28;20261;-66
2024/01/30 04:20:59;;;;;;;5.50;3.92;;;10.00;99.90;;;;;;5030110;28;20178;-69
2024/01/30 04:23:25;;;;;;;5.28;4.15;;;10.00;99.90;;;;;;5024237;28;20361;-68
2024/01/30 04:25:50;;;;;;;6.07;4.15;;;10.00;99.90;;;;;;5029536;28;20224;-69
2024/01/30 04:28:21;;;;;;;4.95;3.92;;;9.90;99.90;;;;;;5022157;28;20293;-69
2024/01/30 04:30:49;;;;;;;5.65;4.30;;;10.00;99.90;;;;;;5016591;28;20182;-68
2024/01/30 04:33:19;;;;;;;7.10;4.30;;;9.90;99.90;;;;;;5014491;28;20232;-68
2024/01/30 04:35:47;;;;;;;5.73;3.83;;;9.90;99.90;;;;;;5014630;28;20191;-69
2024/01/30 04:38:17;;;;;;;6.53;4.53;;;9.90;99.90;;;;;;5028052;28;20277;-69
2024/01/30 04:40:43;;;;;;;7.15;4.93;;;9.90;99.90;;;;;;5025843;28;20202;-69
2024/01/30 04:43:08;;;;;;;6.50;4.57;;;9.90;99.90;;;;;;5038073;28;20332;-68
2024/01/30 04:45:36;;;;;;;5.95;4.30;;;9.80;99.90;;;;;;5038152;28;20180;-67
2024/01/30 04:48:02;;;;;;;6.05;4.40;;;9.80;99.90;;;;;;5030739;28;20218;-69
2024/01/30 04:50:28;;;;;;;5.23;4.00;;;9.80;99.90;;;;;;5035088;28;20209;-68
2024/01/30 04:52:56;;;;;;;7.68;4.68;;;9.80;99.90;;;;;;5052444;28;20173;-69
2024/01/30 04:55:21;;;;;;;6.63;4.20;;;9.80;99.90;;;;;;5058113;28;20220;-67
2024/01/30 04:57:47;;;;;;;5.30;4.38;;;9.80;99.90;;;;;;5052602;28;20186;-68
2024/01/30 05:00:13;;;;;;;5.63;3.90;;;9.70;99.90;;;;;;5038045;28;20347;-69
2024/01/30 05:02:41;;;;;;;5.50;4.22;;;9.70;99.90;;;;;;5037847;28;20229;-69
2024/01/30 05:05:07;;;;;;;4.97;3.80;;;9.80;99.90;;;;;;5056078;28;20181;-69
2024/01/30 05:07:34;;;;;;;5.10;4.15;;;9.70;99.90;;;;;;5057954;28;20193;-69
2024/01/30 05:09:59;;;;;;;5.93;3.97;;;9.70;99.90;;;;;;5057906;28;20200;-68
2024/01/30 05:12:25;;;;;;;5.80;4.28;;;9.70;99.90;;;;;;5057303;28;20253;-69
2024/01/30 05:14:53;;;;;;;5.40;3.90;;;9.60;99.90;;;;;;5047450;28;20170;-69
2024/01/30 05:17:18;;;;;;;4.95;3.75;;;9.60;99.90;;;;;;5037038;28;20184;-69
2024/01/30 05:19:44;;;;;;;5.33;3.67;;;9.70;99.90;;;;;;5028217;28;20421;-69
2024/01/30 05:22:10;;;;;;;5.80;3.97;;;9.70;99.90;;;;;;5017750;28;20176;-68
2024/01/30 05:24:39;;;;;;;5.75;3.88;;;9.60;99.90;;;;;;5033928;28;20233;-69
2024/01/30 05:27:04;;;;;;;6.03;4.40;;;9.60;99.90;;;;;;5031703;28;20198;-69
2024/01/30 05:29:30;;;;;;;6.57;4.30;;;9.60;99.90;;;;;;5019185;28;20194;-68
2024/01/30 05:31:58;;;;;;;5.40;3.60;;;9.60;99.90;;;;;;5030448;28;20228;-66
2024/01/30 05:34:23;;;;;;;6.30;4.45;;;9.60;99.90;;;;;;5022364;28;20269;-69
2024/01/30 05:36:49;;;;;;;6.03;4.30;;;9.60;99.90;;;;;;5022618;28;20285;-69
2024/01/30 05:39:14;;;;;;;4.75;3.78;;;9.60;99.90;;;;;;5033124;28;20233;-69
2024/01/30 05:41:42;;;;;;;5.23;3.67;;;9.60;99.90;;;;;;5021710;28;20216;-68
2024/01/30 05:44:09;;;;;;;4.82;3.90;;;9.60;99.90;;;;;;5024208;28;20175;-69
2024/01/30 05:46:35;;;;;;;5.03;3.83;;;9.60;99.90;;;;;;5028949;28;20198;-69
2024/01/30 05:49:01;;;;;;;5.93;4.25;;;9.60;99.90;;;;;;5026895;28;20192;-69
2024/01/30 05:51:29;;;;;;;7.97;4.90;;;9.60;99.90;;;;;;5027835;28;20182;-69
2024/01/30 05:53:57;;;;;;;6.03;4.18;;;9.50;99.90;;;;;;5052126;28;20216;-63
2024/01/30 05:56:22;;;;;;;5.50;4.27;;;9.50;99.90;;;;;;5039643;28;20202;-64
2024/01/30 05:58:53;;;;;;;6.20;4.10;;;9.50;99.90;;;;;;5025102;28;20316;-64
2024/01/30 06:01:21;;;;;;;6.50;4.47;;;9.60;99.90;;;;;;5017090;28;20174;-64
2024/01/30 06:03:46;;;;;;;5.30;4.25;;;9.50;99.90;;;;;;5033495;28;20235;-70
2024/01/30 06:06:12;;;;;;;6.50;4.53;;;9.50;99.90;;;;;;5036237;28;20289;-67
2024/01/30 06:08:40;;;;;;;5.43;4.40;;;9.50;99.90;;;;;;5035723;28;20194;-68
2024/01/30 06:11:05;;;;;;;5.90;3.83;;;9.50;99.90;;;;;;5036630;28;20185;-68
2024/01/30 06:13:33;;;;;;;5.20;4.25;;;9.50;99.90;;;;;;5036833;28;20173;-67
2024/01/30 06:16:01;;;;;;;8.33;4.60;;;9.60;99.90;;;;;;5036689;28;20198;-67
2024/01/30 06:18:29;;;;;;;6.47;4.00;;;9.50;99.90;;;;;;5036078;28;20271;-68
2024/01/30 06:20:57;;;;;;;6.30;4.30;;;9.50;99.90;;;;;;5036720;28;20178;-68
2024/01/30 06:23:22;;;;;;;5.85;4.00;;;9.60;99.90;;;;;;5025345;28;20183;-68
2024/01/30 06:25:48;;;;;;;5.38;4.15;;;9.50;99.90;;;;;;5029991;28;20201;-69
2024/01/30 06:28:13;;;;;;;4.93;4.03;;;9.50;99.90;;;;;;5036351;28;20185;-68
2024/01/30 06:30:39;;;;;;;7.53;4.65;;;9.50;99.90;;;;;;5036688;28;20185;-65
2024/01/30 06:33:05;;;;;;;5.85;4.70;;;9.50;99.90;;;;;;5054537;28;20185;-65
2024/01/30 06:35:33;;;;;;;6.60;5.13;;;9.50;99.90;;;;;;5055985;28;20208;-64
2024/01/30 06:38:00;;;;;;;6.13;4.53;;;9.50;99.90;;;;;;5037303;28;20174;-64
2024/01/30 06:40:26;;;;;;;6.05;4.50;;;9.50;99.90;;;;;;5032264;28;20174;-65
2024/01/30 06:42:54;;;;;;;5.75;4.82;;;9.50;99.90;;;;;;5024859;28;20287;-63
2024/01/30 06:45:22;;;;;;;7.05;4.95;;;9.50;99.90;;;;;;5029619;28;20175;-63
2024/01/30 06:47:48;;;;;;;5.72;4.57;;;9.50;99.90;;;;;;5026498;28;20217;-64
2024/01/30 06:50:15;;;;;;;6.22;4.18;;;9.50;99.90;;;;;;5018049;28;20199;-64
2024/01/30 06:52:41;;;;;;;5.85;4.75;;;9.50;99.90;;;;;;5017649;28;20182;-64
2024/01/30 06:55:07;;;;;;;7.03;5.50;;;9.50;99.90;;;;;;5016251;28;20187;-66
2024/01/30 06:57:35;;;;;;;7.38;5.05;;;9.50;99.90;;;;;;5026998;28;20207;-65
2024/01/30 07:00:00;;;;;;;6.78;4.38;;;9.60;99.90;;;;;;5016514;28;20178;-64
2024/01/30 07:02:26;;;;;;;5.82;4.53;;;9.60;99.90;;;;;;5015647;28;20175;-65
2024/01/30 07:04:52;;;;;;;7.28;4.82;;;9.60;99.90;;;;;;5014677;28;20198;-65
2024/01/30 07:07:20;;;;;;;5.95;4.72;;;9.60;99.90;;;;;;5015527;28;20266;-65
2024/01/30 07:09:49;;;;;;;6.90;4.57;;;9.60;99.90;;;;;;5015775;28;20229;-64
2024/01/30 07:12:15;;;;;;;6.82;4.65;;;9.60;99.90;;;;;;5034195;28;20213;-65
2024/01/30 07:14:40;;;;;;;6.63;4.57;;;9.60;99.90;;;;;;5042346;28;20181;-67
2024/01/30 07:17:08;;;;;;;6.07;4.75;;;9.60;99.90;;;;;;5054791;28;20209;-65
2024/01/30 07:19:34;;;;;;;6.43;4.65;;;9.60;99.90;;;;;;5055297;28;20166;-64
2024/01/30 07:22:00;;;;;;;5.30;4.50;;;9.60;99.90;;;;;;5049443;28;20264;-65
2024/01/30 07:24:26;;;;;;;6.25;4.43;;;9.60;99.90;;;;;;5035198;28;20198;-64
2024/01/30 07:26:52;;;;;;;7.75;5.10;;;9.60;99.90;;;;;;5036082;28;20182;-64
2024/01/30 07:29:21;;;;;;;6.70;4.85;;;9.60;99.90;;;;;;5055001;28;20209;-64
2024/01/30 07:31:49;;;;;;;6.07;4.65;;;9.60;99.90;;;;;;5054602;28;20205;-64
2024/01/30 07:34:15;;;;;;;6.57;4.55;;;9.60;99.90;;;;;;5054949;28;20177;-65
2024/01/30 07:36:40;;;;;;;5.63;4.50;;;9.60;99.90;;;;;;5054846;28;20239;-64
2024/01/30 07:39:10;;;;;;;5.63;4.03;;;9.70;99.90;;;;;;5054917;28;20173;-64
2024/01/30 07:41:35;;;;;;;5.63;4.15;;;9.70;99.90;;;;;;5054726;28;20173;-65
2024/01/30 07:44:03;;;;;;;6.40;4.05;;;9.70;99.90;;;;;;5054621;28;20173;-64
2024/01/30 07:46:29;;;;;;;6.20;4.65;;;9.70;99.90;;;;;;5054701;28;20287;-65
2024/01/30 07:48:57;;;;;;;7.72;5.20;;;9.60;99.90;;;;;;5028234;28;20202;-65
2024/01/30 07:51:25;;;;;;;7.18;5.35;;;9.70;99.90;;;;;;5014981;28;20198;-64
2024/01/30 07:53:50;;;;;;;5.57;4.80;;;9.80;99.90;;;;;;5028858;28;20170;-64
2024/01/30 07:56:16;;;;;;;6.93;4.75;;;9.70;99.90;;;;;;5033909;28;20205;-64
2024/01/30 07:58:44;;;;;;;6.28;4.93;;;9.80;99.90;;;;;;5019771;28;20202;-64
2024/01/30 08:01:10;;;;;;;5.80;4.55;;;9.70;99.90;;;;;;5020678;28;20328;-64
2024/01/30 08:03:36;;;;;;;7.32;4.93;;;9.70;99.90;;;;;;5034823;28;20260;-65
2024/01/30 08:06:05;;;;;;;7.10;5.47;;;9.80;99.90;;;;;;5043812;28;20211;-66
2024/01/30 08:08:30;;;;;;;6.93;5.20;;;9.80;99.90;;;;;;5035997;28;20174;-64
2024/01/30 08:10:58;;;;;;;8.55;4.72;;;9.80;99.90;;;;;;5026713;28;20201;-64
2024/01/30 08:13:24;;;;;;;7.63;5.20;;;9.80;99.90;;;;;;5014465;28;20206;-64
2024/01/30 08:15:52;;;;;;;6.50;4.70;;;9.80;99.90;;;;;;5014344;28;20221;-64
2024/01/30 08:18:20;;;;;;;6.55;4.72;;;9.80;99.90;;;;;;5019563;28;20182;-65
2024/01/30 08:20:45;;;;;;;6.57;5.05;;;9.80;99.90;;;;;;5034276;28;20166;-67
2024/01/30 08:23:11;;;;;;;7.03;5.18;;;9.80;99.90;;;;;;5034178;28;20374;-64
2024/01/30 08:25:37;;;;;;;7.05;5.20;;;9.80;99.90;;;;;;5034125;28;20242;-65
2024/01/30 08:28:05;;;;;;;6.35;5.03;;;9.80;99.90;;;;;;5034201;28;20186;-64
2024/01/30 08:30:33;;;;;;;6.32;4.93;;;9.80;99.90;;;;;;5033969;28;20174;-64
2024/01/30 08:32:59;;;;;;;7.18;5.18;;;9.90;99.90;;;;;;5033668;28;20284;-64
2024/01/30 08:35:27;;;;;;;7.35;4.75;;;9.90;99.90;;;;;;5039136;28;20296;-64
2024/01/30 08:37:54;;;;;;;7.32;5.10;;;9.90;99.90;;;;;;5053750;28;20176;-65
2024/01/30 08:40:21;;;;;;;7.38;5.25;;;10.00;99.90;;;;;;5041743;28;20193;-65
2024/01/30 08:42:47;;;;;;;8.05;4.82;;;10.00;99.90;;;;;;5033935;28;20221;-64
2024/01/30 08:45:15;;;;;;;6.05;4.80;;;10.00;99.90;;;;;;5033707;28;20220;-65
2024/01/30 08:47:41;;;;;;;6.85;5.15;;;10.00;99.90;;;;;;5034048;28;20433;-64
2024/01/30 08:50:07;;;;;;;8.25;5.35;;;10.00;99.90;;;;;;5033937;28;20197;-63
2024/01/30 08:52:35;;;;;;;7.30;5.05;;;10.00;99.90;;;;;;5033782;28;20197;-64
2024/01/30 08:55:00;;;;;;;6.05;4.65;;;10.10;99.90;;;;;;5034690;28;20170;-65
2024/01/30 08:57:31;;;;;;;6.10;4.07;;;10.10;99.90;;;;;;5046714;28;20215;-64
2024/01/30 09:00:00;;;;;;;6.50;4.68;;;10.10;99.90;;;;;;5053532;28;20170;-64
2024/01/30 09:02:28;;;;;;;6.40;4.15;;;10.20;99.90;;;;;;5039199;28;20174;-64
2024/01/30 09:04:53;;;;;;;6.43;4.80;;;10.20;99.90;;;;;;5014823;28;20202;-64
2024/01/30 09:07:19;;;;;;;6.68;5.00;;;10.30;99.90;;;;;;5014429;28;20175;-65
2024/01/30 09:09:49;;;;;;;7.05;4.57;;;10.30;99.90;;;;;;5022010;28;20209;-65
2024/01/30 09:12:15;;;;;;;5.50;4.30;;;10.40;99.90;;;;;;5033731;28;20281;-68
2024/01/30 09:14:41;;;;;;;7.30;4.80;;;10.40;99.90;;;;;;5017412;28;20205;-65
2024/01/30 09:17:07;;;;;;;6.40;4.50;;;10.40;99.90;;;;;;5038447;28;20210;-65
2024/01/30 09:19:32;;;;;;;4.88;3.92;;;10.50;99.90;;;;;;5034239;28;20228;-66
2024/01/30 09:21:58;;;;;;;5.72;4.40;;;10.60;99.90;;;;;;5014214;28;20166;-65
2024/01/30 09:24:27;;;;;;;6.72;4.57;;;10.60;99.90;;;;;;5014072;28;20179;-66
2024/01/30 09:26:52;;;;;;;8.50;5.22;;;10.70;99.90;;;;;;5031835;28;20180;-65
2024/01/30 09:29:18;;;;;;;7.32;4.75;;;10.70;99.90;;;;;;5057301;28;20414;-65
2024/01/30 09:31:45;;;;;;;5.28;4.18;;;10.80;99.90;;;;;;5026007;28;20265;-65
2024/01/30 09:34:10;;;;;;;6.70;4.90;;;10.90;99.90;;;;;;5017595;28;20221;-65
2024/01/30 09:36:36;;;;;;;6.28;4.32;;;11.10;99.90;;;;;;5017199;28;20241;-65
2024/01/30 09:39:03;;;;;;;6.82;4.82;;;11.30;99.90;;;;;;5017259;28;20171;-65
2024/01/30 09:41:32;;;;;;;7.70;5.22;;;11.50;99.90;;;;;;5017494;28;20543;-65
2024/01/30 09:43:58;;;;;;;6.72;4.90;;;12.00;99.90;;;;;;5027417;28;20186;-65
2024/01/30 09:46:28;;;;;;;6.72;4.97;;;12.40;99.90;;;;;;5037304;28;20204;-65
2024/01/30 09:48:55;;;;;;;8.55;5.35;;;12.80;99.90;;;;;;5020699;28;20210;-65
2024/01/30 09:51:22;;;;;;;7.05;4.88;;;13.20;99.90;;;;;;5017216;28;20217;-63
2024/01/30 09:53:49;;;;;;;7.38;5.30;;;13.40;99.90;;;;;;5017015;28;20273;-65
2024/01/30 09:56:14;;;;;;;8.57;5.45;;;13.70;99.90;;;;;;5016744;28;20254;-64
2024/01/30 09:58:40;;;;;;;6.45;4.80;;;13.90;99.90;;;;;;5017115;28;20213;-65
2024/01/30 10:01:06;;;;;;;6.30;4.55;;;13.90;99.90;;;;;;5046385;28;20205;-66
2024/01/30 10:03:32;;;;;;;5.95;4.65;;;13.90;99.90;;;;;;5056758;28;20219;-64
2024/01/30 10:05:58;;;;;;;7.88;5.25;;;14.00;99.90;;;;;;5028271;28;20183;-63
2024/01/30 10:08:23;;;;;;;9.13;5.60;;;14.00;99.90;;;;;;5017046;28;20175;-64
2024/01/30 10:10:50;;;;;;;6.68;4.70;;;14.00;99.90;;;;;;5019227;28;20231;-64
2024/01/30 10:13:16;;;;;;;7.90;5.68;;;13.90;99.90;;;;;;5036806;28;20210;-63
2024/01/30 10:15:42;;;;;;;6.82;5.18;;;13.80;99.90;;;;;;5036419;28;20193;-63
2024/01/30 10:18:11;;;;;;;9.82;5.95;;;13.70;99.90;;;;;;5025352;28;20189;-63
2024/01/30 10:20:37;;;;;;;8.90;5.45;;;13.50;99.90;;;;;;5016418;28;20175;-65
2024/01/30 10:23:03;;;;;;;7.55;6.03;;;13.40;99.90;;;;;;5016516;28;20400;-65
2024/01/30 10:25:33;;;;;;;8.48;6.05;;;13.20;99.90;;;;;;5016446;28;20178;-65
2024/01/30 10:28:02;;;;;;;7.00;5.60;;;13.10;99.90;;;;;;5016578;28;20171;-65
2024/01/30 10:30:28;;;;;;;6.78;5.22;;;13.00;99.90;;;;;;5017582;28;20240;-65
2024/01/30 10:32:58;;;;;;;6.75;4.80;;;12.80;99.90;;;;;;5036265;28;20225;-65
2024/01/30 10:35:28;;;;;;;7.63;5.20;;;12.80;99.90;;;;;;5018173;28;20273;-65
2024/01/30 10:37:57;;;;;;;6.32;4.82;;;12.70;99.90;;;;;;5016893;28;20261;-65
2024/01/30 10:40:31;;;;;;;6.25;4.93;;;12.60;99.90;;;;;;5055898;28;20179;-64
2024/01/30 10:43:00;;;;;;;7.38;5.50;;;12.60;99.90;;;;;;5056013;28;20165;-64
2024/01/30 10:45:27;;;;;;;5.70;4.82;;;12.50;99.90;;;;;;5055971;28;20205;-64
2024/01/30 10:47:58;;;;;;;7.60;5.25;;;12.50;99.90;;;;;;5055890;28;20420;-64
2024/01/30 10:50:27;;;;;;;7.45;5.38;;;12.50;99.90;;;;;;5056011;28;20178;-63
2024/01/30 10:52:55;;;;;;;7.05;5.13;;;12.40;99.90;;;;;;5038150;28;20174;-64
2024/01/30 10:55:23;;;;;;;6.43;4.95;;;12.40;99.90;;;;;;5033349;28;20181;-64
2024/01/30 10:57:49;;;;;;;7.82;5.60;;;12.40;99.90;;;;;;5015662;28;20229;-64
2024/01/30 11:00:19;;;;;;;7.30;5.53;;;12.30;99.90;;;;;;5015979;28;20179;-64
2024/01/30 11:02:46;;;;;;;6.05;5.28;;;12.30;99.90;;;;;;5015803;28;20222;-64
2024/01/30 11:05:15;;;;;;;8.52;5.40;;;12.20;99.90;;;;;;5015822;28;20249;-64
2024/01/30 11:07:41;;;;;;;6.55;5.03;;;12.20;99.90;;;;;;5015743;28;20209;-66
2024/01/30 11:10:13;;;;;;;6.25;4.68;;;12.20;99.90;;;;;;5015894;28;20218;-63
2024/01/30 11:12:43;;;;;;;7.22;4.88;;;12.20;99.90;;;;;;5028564;28;20207;-65
2024/01/30 11:15:21;;;;;;;6.00;4.80;;;12.20;99.90;;;;;;5055412;28;20169;-63
2024/01/30 11:17:52;;;;;;;8.27;5.30;;;12.20;99.90;;;;;;5055731;28;20169;-65
2024/01/30 11:20:35;;;;;;;7.30;4.93;;;12.10;99.90;;;;;;5055175;28;20196;-64
2024/01/30 11:23:05;;;;;;;6.90;5.10;;;12.30;99.90;;;;;;5055193;28;20193;-65
2024/01/30 11:25:32;;;;;;;7.13;5.18;;;12.20;99.90;;;;;;5055118;28;20173;-64
2024/01/30 11:27:58;;;;;;;7.63;4.45;;;12.30;99.90;;;;;;5055144;28;20191;-64
2024/01/30 11:30:27;;;;;;;6.03;4.30;;;12.30;99.90;;;;;;5054821;28;20228;-64
2024/01/30 11:33:05;;;;;;;6.97;5.05;;;12.30;99.90;;;;;;5046095;28;20189;-63
2024/01/30 11:35:59;;;;;;;6.38;4.80;;;12.40;99.90;;;;;;5034978;28;20198;-65
2024/01/30 11:38:28;;;;;;;7.20;4.47;;;12.40;99.90;;;;;;5014581;28;20194;-65
2024/01/30 11:40:57;;;;;;;5.47;4.10;;;12.50;99.90;;;;;;5031779;28;20232;-66
2024/01/30 11:43:25;;;;;;;5.55;4.15;;;12.50;99.90;;;;;;5031821;28;20261;-64
2024/01/30 11:45:51;;;;;;;6.20;4.10;;;12.60;99.90;;;;;;5029976;28;20174;-65
2024/01/30 11:48:17;;;;;;;8.18;4.40;;;12.60;99.90;;;;;;5043535;28;20206;-65
2024/01/30 11:50:46;;;;;;;7.43;4.30;;;12.70;99.90;;;;;;5037189;28;20193;-65
2024/01/30 11:53:15;;;;;;;5.95;4.55;;;12.80;99.90;;;;;;5029966;28;20271;-64
2024/01/30 11:55:40;;;;;;;6.25;4.97;;;12.90;99.90;;;;;;5034369;28;20232;-64
2024/01/30 11:58:06;;;;;;;7.57;4.30;;;12.90;99.90;;;;;;5034587;28;20201;-64
2024/01/30 12:00:33;;;;;;;7.10;4.03;;;13.00;99.90;;;;;;5048615;28;20211;-65
2024/01/30 12:03:00;;;;;;;6.78;4.30;;;13.00;99.90;;;;;;5054472;28;20165;-64
2024/01/30 12:05:26;;;;;;;5.50;3.83;;;13.20;99.90;;;;;;5034609;28;20269;-65
2024/01/30 12:07:53;;;;;;;5.38;3.90;;;13.20;99.90;;;;;;5030543;28;20201;-65
2024/01/30 12:10:21;;;;;;;7.30;4.50;;;13.30;99.90;;;;;;5031026;28;20198;-65
2024/01/30 12:12:49;;;;;;;5.53;4.10;;;13.40;99.90;;;;;;5030855;28;20178;-64
2024/01/30 12:15:15;;;;;;;5.47;4.00;;;13.50;99.90;;;;;;5043286;28;20209;-65
2024/01/30 12:17:43;;;;;;;5.63;4.05;;;13.50;99.90;;;;;;5034308;28;20170;-65
2024/01/30 12:20:14;;;;;;;7.00;4.35;;;13.60;99.90;;;;;;5034051;28;20198;-65
2024/01/30 12:22:44;;;;;;;5.57;3.90;;;13.60;99.90;;;;;;5034430;28;20166;-65
2024/01/30 12:25:20;;;;;;;5.10;3.70;;;13.70;99.90;;;;;;5034233;28;20166;-65
2024/01/30 12:27:51;;;;;;;5.68;3.50;;;13.70;99.90;;;;;;5034397;28;20174;-65
2024/01/30 12:30:20;;;;;;;4.43;3.30;;;13.80;99.90;;;;;;5034350;28;20174;-65
2024/01/30 12:32:47;;;;;;;4.88;3.70;;;13.80;99.90;;;;;;5033829;28;20284;-63
2024/01/30 12:35:20;;;;;;;5.50;3.53;;;13.90;99.90;;;;;;5030359;28;20246;-63
2024/01/30 12:37:47;;;;;;;6.88;3.70;;;13.90;99.90;;;;;;5014108;28;20209;-64
2024/01/30 12:40:14;;;;;;;4.72;3.55;;;13.90;99.90;;;;;;5014218;28;20266;-63
2024/01/30 12:42:49;;;;;;;5.80;3.60;;;14.00;99.90;;;;;;5014361;28;20198;-65
2024/01/30 12:45:14;;;;;;;6.05;3.28;;;14.00;99.90;;;;;;5024373;28;20189;-65
2024/01/30 12:47:45;;;;;;;4.93;3.40;;;14.00;99.90;;;;;;5033784;28;20181;-63
2024/01/30 12:50:15;;;;;;;5.18;3.45;;;14.10;99.90;;;;;;5031475;28;20180;-63